createdAt,value
2023-05-05T00:04:00.287Z,92.91
2023-05-05T00:09:03.844Z,92.98
2023-05-05T00:14:06.546Z,92.64
2023-05-05T00:19:08.516Z,93.18
2023-05-05T00:24:12.227Z,92.43
2023-05-05T00:29:14.241Z,90.40
2023-05-05T00:34:16.188Z,90.84
2023-05-05T00:39:19.632Z,91.55
2023-05-05T00:44:34.587Z,91.33
2023-05-05T00:49:38.086Z,92.35
2023-05-05T00:54:41.584Z,93.08
2023-05-05T00:59:44.793Z,92.74
2023-05-05T01:04:46.717Z,92.99
2023-05-05T01:10:11.005Z,92.78
2023-05-05T01:15:28.628Z,93.63
2023-05-05T01:20:37.638Z,94.37
2023-05-05T01:26:06.716Z,93.81
2023-05-05T01:31:26.952Z,93.53
2023-05-05T01:36:44.373Z,93.12
2023-05-05T01:41:49.476Z,94.01
2023-05-05T01:46:52.186Z,93.53
2023-05-05T01:51:56.818Z,92.67
2023-05-05T01:56:59.579Z,90.97
2023-05-05T02:02:03.292Z,91.94
2023-05-05T02:07:08.744Z,92.55
2023-05-05T02:12:11.391Z,93.05
2023-05-05T02:17:15.932Z,93.95
2023-05-05T02:22:19.305Z,93.28
2023-05-05T02:27:22.947Z,93.21
2023-05-05T02:32:31.823Z,93.17
2023-05-05T02:37:36.816Z,93.65
2023-05-05T02:42:40.959Z,94.55
2023-05-05T02:47:43.047Z,95.26
2023-05-05T02:52:46.881Z,94.71
2023-05-05T02:58:00.708Z,95.21
2023-05-05T03:03:07.669Z,94.91
2023-05-05T03:08:16.793Z,94.90
2023-05-05T03:13:21.118Z,96.43
2023-05-05T03:18:25.029Z,96.52
2023-05-05T03:23:28.393Z,95.84
2023-05-05T03:28:30.447Z,95.76
2023-05-05T03:33:32.396Z,94.79
2023-05-05T03:38:35.682Z,95.79
2023-05-05T03:43:39.236Z,95.61
2023-05-05T03:48:41.891Z,95.97
2023-05-05T03:53:45.172Z,95.48
2023-05-05T03:58:47.096Z,94.90
2023-05-05T04:03:49.126Z,93.34
2023-05-05T04:08:52.510Z,92.77
2023-05-05T04:13:54.371Z,92.62
2023-05-05T04:18:56.396Z,91.27
2023-05-05T04:23:59.683Z,88.57
2023-05-05T04:29:01.498Z,88.99
2023-05-05T04:34:03.528Z,86.89
2023-05-05T04:39:08.655Z,86.50
2023-05-05T04:44:10.572Z,86.56
2023-05-05T04:49:12.500Z,87.63
2023-05-05T04:54:15.881Z,85.84
2023-05-05T04:59:17.949Z,82.67
2023-05-05T05:04:21.578Z,82.58
2023-05-05T05:09:24.943Z,81.40
2023-05-05T05:14:28.103Z,81.32
2023-05-05T05:19:30.173Z,81.37
2023-05-05T05:24:34.719Z,79.14
2023-05-05T05:29:36.748Z,76.77
2023-05-05T05:34:38.723Z,72.61
2023-05-05T05:39:43.542Z,68.78
2023-05-05T05:44:45.807Z,67.01
2023-05-05T05:49:47.754Z,64.92
2023-05-05T05:54:51.040Z,63.90
2023-05-05T05:59:53.881Z,64.32
2023-05-05T06:04:55.702Z,62.06
2023-05-05T06:10:01.396Z,62.54
2023-05-05T06:15:10.667Z,61.34
2023-05-05T06:20:13.902Z,59.52
2023-05-05T06:25:17.464Z,62.01
2023-05-05T06:30:19.702Z,60.95
2023-05-05T06:35:22.340Z,60.54
2023-05-05T06:40:25.573Z,60.93
2023-05-05T06:45:27.961Z,59.00
2023-05-05T06:50:30.090Z,59.98
2023-05-05T06:55:33.438Z,59.25
2023-05-05T07:00:35.500Z,62.09
2023-05-05T07:05:37.545Z,60.49
2023-05-05T07:10:40.994Z,58.71
2023-05-05T07:15:46.351Z,60.07
2023-05-05T07:20:49.004Z,57.19
2023-05-05T07:25:52.269Z,58.64
2023-05-05T07:30:54.666Z,58.14
2023-05-05T07:35:56.680Z,58.74
2023-05-05T07:41:00.064Z,60.61
2023-05-05T07:46:02.197Z,58.53
2023-05-05T07:51:04.266Z,57.07
2023-05-05T07:56:08.782Z,57.71
2023-05-05T08:01:12.715Z,52.35
2023-05-05T08:06:22.014Z,51.48
2023-05-05T08:11:27.172Z,50.25
2023-05-05T08:16:30.655Z,50.75
2023-05-05T08:21:32.603Z,45.70
2023-05-05T08:26:35.904Z,47.08
2023-05-05T08:31:38.017Z,48.85
2023-05-05T08:36:40.075Z,48.79
2023-05-05T08:41:43.476Z,47.37
2023-05-05T08:46:45.882Z,49.33
2023-05-05T08:51:48.806Z,47.80
2023-05-05T08:56:53.038Z,50.28
2023-05-05T09:01:57.173Z,50.70
2023-05-05T09:06:59.732Z,48.40
2023-05-05T09:12:03.230Z,48.92
2023-05-05T09:17:05.302Z,48.96
2023-05-05T09:22:07.374Z,46.31
2023-05-05T09:27:21.511Z,47.12
2023-05-05T09:32:24.437Z,46.30
2023-05-05T09:37:30.841Z,44.29
2023-05-05T09:42:35.754Z,43.96
2023-05-05T09:47:38.014Z,44.59
2023-05-05T09:52:40.151Z,41.86
2023-05-05T09:57:43.511Z,43.77
2023-05-05T10:02:45.996Z,45.82
2023-05-05T10:07:48.125Z,41.41
2023-05-05T10:12:53.287Z,44.34
2023-05-05T10:18:06.875Z,39.80
2023-05-05T10:23:16.475Z,42.04
2023-05-05T10:28:23.338Z,42.55
2023-05-05T10:33:33.831Z,40.01
2023-05-05T10:38:37.150Z,40.75
2023-05-05T10:43:41.730Z,43.38
2023-05-05T10:48:51.247Z,41.86
2023-05-05T10:54:00.321Z,41.13
2023-05-05T10:59:03.671Z,40.17
2023-05-05T11:04:21.823Z,39.57
2023-05-05T11:09:27.906Z,43.65
2023-05-05T11:14:31.235Z,42.34
2023-05-05T11:19:45.847Z,38.33
2023-05-05T11:24:47.920Z,38.26
2023-05-05T11:30:08.446Z,42.46
2023-05-05T11:35:11.179Z,40.12
2023-05-05T11:40:23.702Z,40.35
2023-05-05T11:45:27.014Z,34.27
2023-05-05T11:50:33.213Z,36.69
2023-05-05T11:55:35.143Z,39.79
2023-05-05T12:00:38.599Z,36.25
2023-05-05T12:05:40.873Z,36.12
2023-05-05T12:10:42.936Z,33.93
2023-05-05T12:15:46.546Z,38.27
2023-05-05T12:20:48.806Z,32.44
2023-05-05T12:25:50.878Z,32.12
2023-05-05T12:30:57.694Z,32.10
2023-05-05T12:35:59.767Z,34.15
2023-05-05T12:41:02.613Z,31.47
2023-05-05T12:46:08.286Z,33.55
2023-05-05T12:51:12.595Z,30.37
2023-05-05T12:56:34.767Z,30.75
2023-05-05T13:01:50.489Z,29.58
2023-05-05T13:07:09.925Z,28.54
2023-05-05T13:12:12.439Z,30.95
2023-05-05T13:17:15.975Z,34.17
2023-05-05T13:22:17.956Z,31.43
2023-05-05T13:27:20.326Z,29.09
2023-05-05T13:32:23.757Z,29.53
2023-05-05T13:37:25.909Z,27.36
2023-05-05T13:42:27.855Z,30.07
2023-05-05T13:47:31.203Z,32.05
2023-05-05T13:52:33.513Z,28.45
2023-05-05T13:57:35.665Z,29.52
2023-05-05T14:02:39.040Z,30.90
2023-05-05T14:07:41.173Z,26.37
2023-05-05T14:12:43.605Z,30.20
2023-05-05T14:17:46.986Z,29.52
2023-05-05T14:22:49.497Z,30.83
2023-05-05T14:27:51.597Z,30.79
2023-05-05T14:32:54.958Z,28.30
2023-05-05T14:37:56.990Z,29.86
2023-05-05T14:42:58.878Z,32.29
2023-05-05T14:48:02.339Z,29.91
2023-05-05T14:53:04.711Z,31.89
2023-05-05T14:58:06.678Z,30.67
2023-05-05T15:03:09.948Z,30.21
2023-05-05T15:08:12.477Z,30.60
2023-05-05T15:13:14.637Z,30.68
2023-05-05T15:18:18.577Z,32.97
2023-05-05T15:23:20.591Z,29.88
2023-05-05T15:28:22.551Z,31.16
2023-05-05T15:33:26.068Z,31.50
2023-05-05T15:38:29.373Z,32.39
2023-05-05T15:43:31.349Z,31.00
2023-05-05T15:48:35.655Z,31.03
2023-05-05T15:53:37.585Z,32.71
2023-05-05T15:58:39.414Z,34.38
2023-05-05T16:03:42.779Z,34.49
2023-05-05T16:08:47.570Z,33.94
2023-05-05T16:13:50.083Z,33.25
2023-05-05T16:18:53.361Z,34.85
2023-05-05T16:23:55.632Z,35.86
2023-05-05T16:28:57.673Z,38.16
2023-05-05T16:34:01.132Z,38.13
2023-05-05T16:39:03.566Z,39.33
2023-05-05T16:44:06.160Z,40.58
2023-05-05T16:49:09.470Z,39.37
2023-05-05T16:54:11.430Z,38.76
2023-05-05T16:59:15.539Z,38.30
2023-05-05T17:04:18.858Z,39.17
2023-05-05T17:09:24.806Z,38.92
2023-05-05T17:14:27.360Z,38.30
2023-05-05T17:19:30.680Z,40.09
2023-05-05T17:24:32.654Z,39.37
2023-05-05T17:29:40.416Z,39.01
2023-05-05T17:34:43.804Z,41.74
2023-05-05T17:39:45.760Z,42.92
2023-05-05T17:44:47.799Z,44.19
2023-05-05T17:49:54.082Z,47.32
2023-05-05T17:54:56.256Z,48.10
2023-05-05T17:59:58.242Z,49.24
2023-05-05T18:05:01.639Z,49.50
2023-05-05T18:10:04.226Z,49.54
2023-05-05T18:15:07.552Z,51.60
2023-05-05T18:20:11.829Z,52.57
2023-05-05T18:25:14.041Z,54.29
2023-05-05T18:30:16.285Z,55.68
2023-05-05T18:35:19.643Z,57.52
2023-05-05T18:40:21.943Z,58.41
2023-05-05T18:45:24.134Z,58.70
2023-05-05T18:50:28.010Z,59.16
2023-05-05T18:55:30.005Z,62.04
2023-05-05T19:00:32.013Z,61.41
2023-05-05T19:05:35.859Z,64.13
2023-05-05T19:10:38.101Z,66.83
2023-05-05T19:15:40.102Z,62.10
2023-05-05T19:20:43.630Z,57.68
2023-05-05T19:25:46.302Z,56.33
2023-05-05T19:30:48.742Z,53.86
2023-05-05T19:35:52.258Z,54.13
2023-05-05T19:40:54.301Z,52.88
2023-05-05T19:45:56.509Z,52.44
2023-05-05T19:50:59.950Z,52.92
2023-05-05T19:56:01.927Z,53.21
2023-05-05T20:01:03.927Z,51.16
2023-05-05T20:06:07.515Z,51.96
2023-05-05T20:11:09.530Z,50.79
2023-05-05T20:16:12.106Z,50.63
2023-05-05T20:21:16.763Z,50.12
2023-05-05T20:26:18.878Z,51.04
2023-05-05T20:31:21.118Z,51.01
2023-05-05T20:36:26.265Z,50.49
2023-05-05T20:41:28.324Z,51.16
2023-05-05T20:46:30.680Z,51.52
2023-05-05T20:51:35.058Z,52.03
2023-05-05T20:56:37.107Z,53.01
2023-05-05T21:01:39.638Z,52.95
2023-05-05T21:06:42.982Z,51.55
2023-05-05T21:11:44.948Z,52.02
2023-05-05T21:16:48.150Z,51.84
2023-05-05T21:21:51.496Z,50.98
2023-05-05T21:26:53.521Z,50.99
2023-05-05T21:31:55.494Z,51.34
2023-05-05T21:36:59.166Z,50.84
2023-05-05T21:42:01.269Z,51.37
2023-05-05T21:47:05.280Z,51.40
2023-05-05T21:52:08.634Z,54.95
2023-05-05T21:57:10.687Z,50.65
2023-05-05T22:02:12.683Z,53.69
2023-05-05T22:07:16.032Z,54.66
2023-05-05T22:12:18.096Z,56.48
2023-05-05T22:17:20.057Z,57.42
2023-05-05T22:22:23.362Z,59.43
2023-05-05T22:27:25.354Z,54.67
2023-05-05T22:32:27.367Z,52.94
2023-05-05T22:37:30.688Z,53.61
2023-05-05T22:42:32.681Z,58.32
2023-05-05T22:47:34.952Z,60.38
2023-05-05T22:52:38.412Z,60.25
2023-05-05T22:57:40.876Z,62.79
2023-05-05T23:02:42.932Z,67.95
2023-05-05T23:07:46.297Z,70.44
2023-05-05T23:12:48.289Z,73.68
2023-05-05T23:17:50.401Z,74.32
2023-05-05T23:22:53.776Z,76.63
2023-05-05T23:27:56.036Z,78.43
2023-05-05T23:32:58.086Z,80.27
2023-05-05T23:38:01.394Z,82.42
2023-05-05T23:43:03.374Z,83.91
2023-05-05T23:48:05.607Z,84.18
2023-05-05T23:53:09.597Z,84.99
2023-05-05T23:58:11.529Z,85.29
